createdAt,value
2023-12-30T00:02:21.714Z,35.03
2023-12-30T00:05:26.423Z,33.40
2023-12-30T00:08:28.914Z,35.47
2023-12-30T00:11:31.721Z,34.03
2023-12-30T00:14:34.149Z,33.65
2023-12-30T00:17:37.162Z,34.58
2023-12-30T00:20:39.734Z,34.47
2023-12-30T00:23:46.344Z,35.40
2023-12-30T00:26:49.116Z,33.97
2023-12-30T00:29:52.080Z,31.65
2023-12-30T00:32:54.551Z,33.88
2023-12-30T00:35:58.258Z,35.03
2023-12-30T00:39:00.711Z,34.38
2023-12-30T00:42:03.554Z,33.87
2023-12-30T00:45:06.862Z,34.08
2023-12-30T00:48:09.610Z,34.05
2023-12-30T00:51:12.180Z,34.38
2023-12-30T00:54:15.028Z,33.72
2023-12-30T00:57:17.504Z,33.83
2023-12-30T01:00:20.220Z,36.00
2023-12-30T01:03:22.732Z,36.03
2023-12-30T01:06:25.627Z,33.97
2023-12-30T01:09:28.070Z,33.75
2023-12-30T01:12:30.972Z,32.90
2023-12-30T01:15:34.218Z,31.90
2023-12-30T01:18:37.112Z,34.30
2023-12-30T01:21:39.597Z,33.63
2023-12-30T01:24:42.292Z,32.28
2023-12-30T01:27:44.868Z,33.37
2023-12-30T01:30:48.129Z,36.08
2023-12-30T01:33:50.890Z,36.25
2023-12-30T01:36:55.823Z,37.78
2023-12-30T01:39:58.323Z,36.88
2023-12-30T01:43:04.453Z,36.00
2023-12-30T01:46:10.456Z,35.75
2023-12-30T01:49:14.057Z,35.45
2023-12-30T01:52:17.125Z,35.55
2023-12-30T01:55:20.803Z,35.15
2023-12-30T01:58:24.680Z,33.27
2023-12-30T02:01:28.454Z,34.38
2023-12-30T02:04:32.018Z,37.05
2023-12-30T02:07:34.810Z,36.75
2023-12-30T02:10:38.025Z,37.92
2023-12-30T02:13:44.113Z,36.73
2023-12-30T02:16:47.042Z,35.97
2023-12-30T02:19:51.886Z,34.35
2023-12-30T02:22:55.982Z,33.50
2023-12-30T02:25:58.551Z,35.30
2023-12-30T02:29:01.302Z,35.83
2023-12-30T02:32:03.742Z,37.95
2023-12-30T02:35:06.833Z,33.33
2023-12-30T02:38:09.970Z,34.58
2023-12-30T02:41:12.745Z,34.15
2023-12-30T02:44:20.231Z,33.13
2023-12-30T02:47:23.181Z,36.38
2023-12-30T02:50:25.683Z,38.30
2023-12-30T02:53:28.366Z,38.60
2023-12-30T02:56:30.786Z,37.85
2023-12-30T02:59:33.968Z,37.70
2023-12-30T03:02:37.648Z,35.05
2023-12-30T03:05:40.655Z,38.20
2023-12-30T03:08:43.099Z,36.85
2023-12-30T03:11:46.402Z,37.03
2023-12-30T03:14:48.875Z,35.93
2023-12-30T03:17:51.798Z,38.42
2023-12-30T03:20:54.322Z,39.88
2023-12-30T03:23:57.124Z,37.88
2023-12-30T03:26:59.657Z,39.53
2023-12-30T03:30:02.487Z,36.97
2023-12-30T03:33:05.399Z,35.67
2023-12-30T03:36:08.944Z,37.08
2023-12-30T03:39:11.464Z,37.55
2023-12-30T03:42:14.263Z,37.00
2023-12-30T03:45:16.810Z,35.10
2023-12-30T03:48:19.966Z,34.90
2023-12-30T03:51:22.464Z,38.03
2023-12-30T03:54:25.272Z,36.13
2023-12-30T03:57:27.842Z,37.47
2023-12-30T04:00:30.645Z,35.50
2023-12-30T04:03:33.382Z,33.50
2023-12-30T04:06:36.001Z,34.22
2023-12-30T04:09:38.806Z,32.03
2023-12-30T04:12:41.261Z,33.90
2023-12-30T04:15:44.007Z,29.73
2023-12-30T04:18:46.535Z,31.20
2023-12-30T04:21:49.860Z,29.98
2023-12-30T04:24:54.250Z,29.10
2023-12-30T04:27:58.048Z,30.12
2023-12-30T04:31:01.282Z,28.10
2023-12-30T04:34:04.694Z,28.65
2023-12-30T04:37:07.193Z,29.87
2023-12-30T04:40:10.296Z,28.92
2023-12-30T04:43:13.109Z,28.15
2023-12-30T04:46:16.084Z,28.07
2023-12-30T04:49:18.617Z,28.25
2023-12-30T04:52:21.800Z,31.08
2023-12-30T04:55:24.984Z,31.12
2023-12-30T04:58:27.742Z,29.65
2023-12-30T05:01:32.478Z,22.07
2023-12-30T05:04:35.637Z,29.63
2023-12-30T05:07:38.146Z,27.52
2023-12-30T05:10:40.956Z,28.23
2023-12-30T05:13:44.754Z,30.55
2023-12-30T05:16:47.917Z,28.87
2023-12-30T05:19:50.467Z,28.58
2023-12-30T05:22:53.363Z,29.98
2023-12-30T05:25:55.744Z,31.45
2023-12-30T05:28:59.760Z,29.55
2023-12-30T05:32:05.236Z,29.33
2023-12-30T05:35:08.423Z,28.58
2023-12-30T05:38:13.740Z,28.65
2023-12-30T05:41:16.745Z,29.35
2023-12-30T05:44:19.160Z,29.20
2023-12-30T05:47:21.881Z,28.57
2023-12-30T05:50:24.325Z,30.65
2023-12-30T05:53:29.628Z,27.70
2023-12-30T05:56:32.043Z,29.35
2023-12-30T05:59:36.371Z,30.67
2023-12-30T06:02:38.893Z,29.80
2023-12-30T06:05:44.176Z,30.27
2023-12-30T06:08:48.482Z,33.42
2023-12-30T06:11:51.246Z,27.30
2023-12-30T06:14:56.333Z,29.25
2023-12-30T06:17:59.487Z,29.40
2023-12-30T06:21:03.239Z,28.20
2023-12-30T06:24:06.461Z,32.72
2023-12-30T06:27:08.892Z,29.35
2023-12-30T06:30:12.006Z,34.58
2023-12-30T06:33:14.462Z,32.43
2023-12-30T06:36:22.664Z,32.22
2023-12-30T06:39:25.153Z,30.65
2023-12-30T06:42:27.870Z,29.30
2023-12-30T06:45:30.505Z,30.15
2023-12-30T06:48:33.282Z,30.40
2023-12-30T06:55:52.565Z,29.58
2023-12-30T06:58:55.503Z,32.15
2023-12-30T07:01:58.006Z,33.17
2023-12-30T07:05:01.096Z,30.17
2023-12-30T07:08:03.717Z,28.92
2023-12-30T07:11:06.377Z,28.65
2023-12-30T07:14:08.814Z,30.20
2023-12-30T07:17:12.087Z,30.40
2023-12-30T07:20:14.638Z,26.27
2023-12-30T07:23:17.356Z,30.02
2023-12-30T07:26:20.033Z,30.05
2023-12-30T07:29:22.797Z,27.85
2023-12-30T07:32:25.265Z,26.23
2023-12-30T07:35:28.589Z,28.13
2023-12-30T07:38:32.142Z,26.08
2023-12-30T07:41:35.084Z,29.85
2023-12-30T07:44:39.669Z,26.90
2023-12-30T07:47:42.529Z,27.35
2023-12-30T07:50:45.134Z,26.77
2023-12-30T07:53:48.595Z,26.95
2023-12-30T07:56:51.453Z,25.70
2023-12-30T07:59:54.237Z,25.67
2023-12-30T08:02:56.718Z,26.20
2023-12-30T08:05:59.553Z,24.60
2023-12-30T08:09:02.061Z,24.58
2023-12-30T08:12:05.901Z,27.60
2023-12-30T08:15:10.470Z,27.37
2023-12-30T08:18:13.216Z,26.05
2023-12-30T08:21:16.059Z,27.13
2023-12-30T08:24:20.547Z,28.85
2023-12-30T08:27:23.184Z,25.40
2023-12-30T08:30:26.975Z,26.58
2023-12-30T08:33:29.752Z,28.08
2023-12-30T08:36:32.591Z,27.30
2023-12-30T08:39:38.573Z,27.80
2023-12-30T08:42:45.497Z,25.48
2023-12-30T08:45:48.025Z,25.33
2023-12-30T08:48:50.948Z,25.35
2023-12-30T08:51:53.520Z,26.10
2023-12-30T08:54:57.280Z,25.05
2023-12-30T08:58:01.049Z,24.98
2023-12-30T09:01:04.117Z,25.25
2023-12-30T09:04:06.843Z,27.65
2023-12-30T09:07:10.167Z,30.07
2023-12-30T09:10:13.065Z,26.45
2023-12-30T09:13:15.743Z,28.00
2023-12-30T09:16:18.645Z,26.67
2023-12-30T09:19:21.613Z,23.20
2023-12-30T09:22:24.198Z,24.77
2023-12-30T09:25:27.063Z,25.20
2023-12-30T09:28:31.931Z,26.85
2023-12-30T09:31:35.008Z,26.25
2023-12-30T09:34:42.062Z,27.42
2023-12-30T09:37:46.987Z,25.27
2023-12-30T09:40:53.594Z,28.23
2023-12-30T09:44:00.147Z,27.48
2023-12-30T09:47:09.163Z,29.60
2023-12-30T09:50:12.334Z,27.83
2023-12-30T09:53:15.044Z,28.33
2023-12-30T09:56:19.732Z,28.48
2023-12-30T09:59:22.728Z,30.02
2023-12-30T10:02:26.154Z,27.13
2023-12-30T10:05:29.014Z,28.08
2023-12-30T10:08:32.141Z,26.97
2023-12-30T10:11:36.403Z,28.90
2023-12-30T10:14:39.124Z,31.60
2023-12-30T10:17:42.341Z,33.55
2023-12-30T10:20:46.994Z,32.42
2023-12-30T10:23:52.633Z,31.57
2023-12-30T10:26:55.397Z,29.35
2023-12-30T10:30:01.025Z,31.98
2023-12-30T10:33:15.536Z,28.85
2023-12-30T10:36:19.767Z,31.67
2023-12-30T10:39:26.420Z,30.17
2023-12-30T10:42:29.138Z,31.08
2023-12-30T10:45:32.269Z,33.67
2023-12-30T10:48:38.742Z,31.83
2023-12-30T10:51:42.192Z,32.15
2023-12-30T10:58:03.338Z,31.52
2023-12-30T11:01:06.758Z,30.98
2023-12-30T11:04:13.928Z,31.77
2023-12-30T11:07:21.895Z,30.95
2023-12-30T11:10:24.378Z,32.03
2023-12-30T11:13:27.162Z,31.02
2023-12-30T11:16:34.111Z,33.55
2023-12-30T11:19:38.028Z,31.58
2023-12-30T11:22:42.206Z,33.75
2023-12-30T11:25:47.395Z,33.13
2023-12-30T11:28:50.765Z,33.17
2023-12-30T11:31:57.905Z,31.12
2023-12-30T11:35:00.773Z,29.75
2023-12-30T11:38:10.214Z,31.58
2023-12-30T11:41:12.762Z,28.43
2023-12-30T11:44:16.191Z,33.08
2023-12-30T11:47:22.893Z,31.73
2023-12-30T11:50:25.651Z,28.77
2023-12-30T11:53:33.627Z,20.75
2023-12-30T11:56:36.788Z,29.23
2023-12-30T11:59:39.540Z,32.60
2023-12-30T12:02:42.405Z,23.08
2023-12-30T12:05:45.239Z,22.77
2023-12-30T12:08:48.753Z,25.83
2023-12-30T12:11:51.980Z,26.83
2023-12-30T12:14:55.029Z,24.63
2023-12-30T12:17:57.980Z,21.25
2023-12-30T12:21:05.602Z,21.45
2023-12-30T12:24:08.588Z,20.08
2023-12-30T12:27:11.051Z,16.67
2023-12-30T12:30:14.183Z,19.12
2023-12-30T12:33:20.009Z,18.75
2023-12-30T12:36:23.317Z,19.60
2023-12-30T12:39:25.833Z,19.27
2023-12-30T12:42:31.081Z,17.83
2023-12-30T12:45:33.934Z,16.75
2023-12-30T12:48:39.262Z,15.65
2023-12-30T12:51:45.240Z,14.25
2023-12-30T12:54:48.605Z,18.17
2023-12-30T12:57:51.201Z,16.27
2023-12-30T13:00:54.424Z,17.33
2023-12-30T13:03:59.398Z,16.77
2023-12-30T13:07:02.214Z,15.80
2023-12-30T13:10:28.307Z,16.55
2023-12-30T13:13:31.197Z,17.90
2023-12-30T13:16:33.757Z,16.35
2023-12-30T13:19:37.898Z,17.67
2023-12-30T13:22:40.424Z,16.58
2023-12-30T13:25:44.315Z,14.40
2023-12-30T13:28:47.530Z,13.73
2023-12-30T13:31:54.485Z,12.85
2023-12-30T13:34:58.529Z,12.60
2023-12-30T13:38:02.515Z,12.18
2023-12-30T13:41:05.331Z,12.25
2023-12-30T13:44:13.031Z,14.40
2023-12-30T13:47:24.748Z,14.60
2023-12-30T13:50:32.758Z,15.32
2023-12-30T13:53:35.317Z,15.20
2023-12-30T13:56:43.114Z,17.60
2023-12-30T13:59:46.237Z,16.30
2023-12-30T14:02:54.038Z,14.95
2023-12-30T14:05:57.866Z,17.73
2023-12-30T14:09:14.261Z,15.05
2023-12-30T14:12:19.245Z,15.20
2023-12-30T14:15:21.709Z,17.37
2023-12-30T14:18:24.983Z,17.52
2023-12-30T14:21:27.708Z,17.58
2023-12-30T14:24:32.849Z,17.20
2023-12-30T14:27:37.082Z,18.45
2023-12-30T14:30:40.615Z,14.83
2023-12-30T14:33:43.714Z,15.85
2023-12-30T14:36:46.527Z,11.98
2023-12-30T14:39:49.345Z,11.70
2023-12-30T14:42:52.418Z,10.90
2023-12-30T14:45:55.166Z,12.83
2023-12-30T14:48:59.446Z,13.38
2023-12-30T14:52:02.303Z,12.93
2023-12-30T14:55:10.668Z,8.43
2023-12-30T14:58:13.127Z,8.00
2023-12-30T15:01:17.126Z,9.03
2023-12-30T15:04:19.669Z,7.50
2023-12-30T15:07:22.614Z,12.52
2023-12-30T15:10:25.805Z,14.20
2023-12-30T15:13:28.641Z,16.08
2023-12-30T15:16:31.296Z,16.77
2023-12-30T15:19:34.085Z,17.10
2023-12-30T15:22:37.979Z,17.40
2023-12-30T15:25:43.581Z,20.60
2023-12-30T15:28:46.047Z,19.17
2023-12-30T15:31:50.360Z,19.40
2023-12-30T15:34:53.092Z,19.37
2023-12-30T15:37:56.270Z,20.52
2023-12-30T15:40:59.605Z,19.55
2023-12-30T15:44:02.499Z,20.83
2023-12-30T15:47:11.301Z,22.27
2023-12-30T15:50:14.086Z,21.80
2023-12-30T15:53:18.845Z,23.58
2023-12-30T15:56:21.502Z,25.62
2023-12-30T15:59:23.876Z,25.45
2023-12-30T16:02:26.620Z,26.53
2023-12-30T16:05:29.450Z,25.75
2023-12-30T16:08:31.884Z,27.75
2023-12-30T16:11:35.326Z,26.67
2023-12-30T16:14:38.626Z,25.30
2023-12-30T16:17:43.091Z,23.83
2023-12-30T16:20:46.324Z,22.52
2023-12-30T16:23:49.194Z,25.20
2023-12-30T16:26:51.670Z,22.20
2023-12-30T16:29:54.367Z,22.58
2023-12-30T16:32:56.916Z,20.77
2023-12-30T16:35:59.738Z,21.35
2023-12-30T16:39:02.825Z,23.20
2023-12-30T16:42:05.676Z,21.87
2023-12-30T16:45:08.535Z,22.48
2023-12-30T16:48:11.552Z,23.57
2023-12-30T16:51:14.775Z,23.90
2023-12-30T16:54:17.428Z,24.20
2023-12-30T16:57:19.914Z,23.48
2023-12-30T17:00:22.827Z,24.00
2023-12-30T17:03:25.224Z,23.73
2023-12-30T17:06:27.984Z,22.52
2023-12-30T17:09:30.462Z,22.02
2023-12-30T17:12:33.249Z,22.20
2023-12-30T17:15:35.946Z,19.65
2023-12-30T17:18:38.789Z,17.13
2023-12-30T17:21:41.398Z,17.48
2023-12-30T17:24:44.062Z,17.90
2023-12-30T17:27:46.634Z,18.15
2023-12-30T17:30:49.774Z,18.77
2023-12-30T17:33:52.359Z,19.87
2023-12-30T17:36:55.258Z,23.90
2023-12-30T17:39:57.655Z,23.45
2023-12-30T17:43:00.727Z,22.55
2023-12-30T17:46:04.050Z,24.55
2023-12-30T17:49:06.866Z,22.33
2023-12-30T17:52:09.448Z,22.95
2023-12-30T17:55:12.263Z,25.30
2023-12-30T17:58:15.075Z,23.25
2023-12-30T18:01:19.487Z,23.70
2023-12-30T18:04:22.567Z,22.40
2023-12-30T18:07:25.143Z,21.35
2023-12-30T18:10:28.123Z,24.12
2023-12-30T18:13:30.800Z,24.05
2023-12-30T18:16:33.686Z,25.83
2023-12-30T18:19:36.407Z,23.77
2023-12-30T18:22:41.549Z,23.65
2023-12-30T18:25:44.160Z,24.05
2023-12-30T18:28:47.153Z,23.30
2023-12-30T18:31:49.688Z,25.15
2023-12-30T18:34:53.106Z,23.80
2023-12-30T18:37:55.567Z,24.50
2023-12-30T18:40:58.270Z,24.10
2023-12-30T18:44:01.270Z,24.80
2023-12-30T18:47:04.139Z,26.20
2023-12-30T18:50:06.905Z,27.33
2023-12-30T18:53:09.901Z,25.77
2023-12-30T18:56:12.343Z,26.87
2023-12-30T18:59:15.168Z,26.85
2023-12-30T19:02:17.936Z,26.73
2023-12-30T19:05:20.882Z,26.40
2023-12-30T19:08:23.360Z,28.48
2023-12-30T19:11:26.094Z,29.00
2023-12-30T19:14:28.674Z,27.85
2023-12-30T19:17:31.523Z,30.15
2023-12-30T19:20:34.069Z,29.87
2023-12-30T19:23:36.886Z,30.77
2023-12-30T19:26:41.947Z,26.83
2023-12-30T19:29:44.700Z,26.70
2023-12-30T19:32:47.088Z,28.80
2023-12-30T19:35:50.214Z,26.13
2023-12-30T19:38:54.574Z,27.92
2023-12-30T19:41:57.390Z,30.88
2023-12-30T19:45:00.130Z,30.62
2023-12-30T19:48:03.227Z,29.92
2023-12-30T19:51:05.776Z,30.23
2023-12-30T19:54:08.401Z,29.50
2023-12-30T19:57:11.118Z,24.58
2023-12-30T20:00:14.750Z,21.55
2023-12-30T20:03:19.240Z,22.05
2023-12-30T20:06:21.748Z,23.13
2023-12-30T20:09:24.656Z,20.92
2023-12-30T20:12:27.201Z,24.33
2023-12-30T20:15:29.915Z,22.42
2023-12-30T20:18:32.395Z,23.70
2023-12-30T20:21:35.527Z,20.80
2023-12-30T20:24:37.944Z,20.40
2023-12-30T20:27:42.210Z,21.10
2023-12-30T20:30:44.740Z,22.10
2023-12-30T20:33:48.215Z,23.12
2023-12-30T20:36:53.764Z,22.77
2023-12-30T20:39:56.418Z,25.48
2023-12-30T20:42:59.401Z,25.20
2023-12-30T20:46:02.107Z,26.92
2023-12-30T20:49:07.299Z,25.20
2023-12-30T20:52:10.301Z,26.73
2023-12-30T20:55:15.229Z,24.30
2023-12-30T20:58:18.843Z,23.92
2023-12-30T21:01:22.214Z,21.15
2023-12-30T21:04:25.098Z,21.00
2023-12-30T21:07:27.703Z,21.63
2023-12-30T21:10:30.575Z,21.05
2023-12-30T21:13:33.066Z,23.05
2023-12-30T21:16:36.746Z,19.87
2023-12-30T21:19:39.486Z,21.75
2023-12-30T21:22:42.264Z,19.47
2023-12-30T21:25:49.748Z,20.37
2023-12-30T21:28:52.633Z,22.23
2023-12-30T21:31:56.276Z,21.87
2023-12-30T21:34:59.061Z,20.75
2023-12-30T21:38:01.564Z,21.83
2023-12-30T21:41:07.309Z,20.70
2023-12-30T21:44:09.702Z,21.85
2023-12-30T21:47:12.552Z,19.17
2023-12-30T21:50:15.305Z,22.70
2023-12-30T21:53:18.088Z,22.13
2023-12-30T21:56:20.600Z,20.45
2023-12-30T21:59:23.308Z,18.90
2023-12-30T22:02:25.760Z,20.42
2023-12-30T22:05:28.951Z,20.20
2023-12-30T22:08:31.890Z,20.77
2023-12-30T22:11:34.615Z,21.10
2023-12-30T22:14:37.335Z,21.92
2023-12-30T22:17:40.106Z,21.15
2023-12-30T22:20:42.661Z,22.00
2023-12-30T22:23:46.078Z,23.00
2023-12-30T22:26:49.168Z,22.98
2023-12-30T22:29:51.864Z,24.23
2023-12-30T22:32:54.303Z,21.40
2023-12-30T22:35:57.033Z,23.02
2023-12-30T22:38:59.565Z,22.67
2023-12-30T22:42:02.367Z,18.35
2023-12-30T22:45:06.476Z,16.15
2023-12-30T22:48:09.309Z,16.50
2023-12-30T22:51:12.464Z,18.45
2023-12-30T22:54:16.342Z,19.07
2023-12-30T22:57:18.900Z,18.45
2023-12-30T23:00:28.267Z,18.35
2023-12-30T23:03:30.771Z,17.12
2023-12-30T23:06:33.506Z,18.98
2023-12-30T23:09:35.969Z,17.03
2023-12-30T23:12:39.492Z,18.12
2023-12-30T23:15:41.894Z,18.73
2023-12-30T23:18:44.799Z,19.62
2023-12-30T23:21:47.201Z,18.58
2023-12-30T23:24:50.889Z,18.23
2023-12-30T23:27:53.214Z,19.25
2023-12-30T23:30:56.382Z,18.90
2023-12-30T23:33:59.329Z,17.42
2023-12-30T23:37:02.112Z,19.35
2023-12-30T23:40:07.623Z,23.67
2023-12-30T23:43:11.635Z,24.92
2023-12-30T23:46:14.178Z,23.12
2023-12-30T23:49:16.960Z,24.00
2023-12-30T23:52:19.360Z,24.25
2023-12-30T23:55:22.142Z,23.97
2023-12-30T23:58:24.836Z,24.80
